Time;durP1;ratioP1;P1;durP2;ratioP2;P2;SDS_P1;SDS_P2;PMS_P1;PMS_P2;Temp;Humidity;BMP_temperature;BMP_pressure;BME280_temperature;BME280_humidity;BME280_pressure;Samples;Min_cycle;Max_cycle;Signal;HPM_P1;HPM_P2
2024/01/12 00:00:45;;;;;;;;;;;3.30;99.90;;;;;;5084152;28;19955;-76
2024/01/12 00:03:10;;;;;;;;;;;3.30;99.90;;;;;;5085459;28;19932;-76
2024/01/12 00:05:37;;;;;;;;;;;4.20;99.90;;;;;;5083839;28;19928;-76
2024/01/12 00:08:02;;;;;;;;;;;3.90;99.90;;;;;;5083195;28;19938;-76
2024/01/12 00:10:28;;;;;;;;;;;3.30;99.90;;;;;;5084914;28;20798;-76
2024/01/12 00:12:54;;;;;;;;;;;3.30;99.90;;;;;;5083141;28;19931;-76
2024/01/12 00:15:20;;;;;;;;;;;3.30;99.90;;;;;;5099790;27;20378;-76
2024/01/12 00:17:45;;;;;;;;;;;3.30;99.90;;;;;;5067068;28;19932;-76
2024/01/12 00:20:11;;;;;;;;;;;3.30;99.90;;;;;;5084799;28;19923;-75
2024/01/12 00:22:38;;;;;;;;;;;3.30;99.90;;;;;;5084754;28;19934;-76
2024/01/12 00:25:04;;;;;;;;;;;3.30;99.90;;;;;;5084211;28;19932;-76
2024/01/12 00:27:30;;;;;;;;;;;3.30;99.90;;;;;;5067621;28;20307;-76
2024/01/12 00:29:55;;;;;;;;;;;3.30;99.90;;;;;;5069900;28;19935;-76
2024/01/12 00:32:21;;;;;;;;;;;3.30;99.90;;;;;;5052522;28;19932;-77
2024/01/12 00:34:47;;;;;;;;;;;3.30;99.90;;;;;;5068857;28;19927;-76
2024/01/12 00:37:12;;;;;;;;;;;3.30;99.90;;;;;;5052080;28;20366;-76
2024/01/12 00:39:41;;;;;;;;;;;3.30;99.90;;;;;;5104064;28;19934;-77
2024/01/12 00:42:06;;;;;;;;;;;3.70;99.90;;;;;;5085621;28;19927;-76
2024/01/12 00:44:32;;;;;;;;;;;4.10;99.90;;;;;;5065096;28;19950;-76
2024/01/12 00:46:58;;;;;;;;;;;3.30;99.90;;;;;;5085617;28;20007;-76
2024/01/12 00:49:23;;;;;;;;;;;3.30;99.90;;;;;;5064592;28;19931;-76
2024/01/12 00:51:49;;;;;;;;;;;3.30;99.90;;;;;;5086026;28;19931;-76
2024/01/12 00:54:15;;;;;;;;;;;3.40;99.90;;;;;;5086836;28;20283;-75
2024/01/12 00:56:42;;;;;;;;;;;3.70;99.90;;;;;;5070240;28;20120;-76
2024/01/12 00:59:07;;;;;;;;;;;3.40;99.90;;;;;;5071464;28;19927;-76
2024/01/12 01:01:33;;;;;;;;;;;3.40;99.90;;;;;;5085685;28;19932;-76
2024/01/12 01:04:04;;;;;;;;;;;3.40;99.90;;;;;;5056360;28;19932;-75
2024/01/12 01:06:29;;;;;;;;;;;3.30;99.90;;;;;;5086551;28;19938;-77
2024/01/12 01:08:55;;;;;;;;;;;3.40;99.90;;;;;;5086258;28;20343;-76
2024/01/12 01:11:21;;;;;;;;;;;3.60;99.90;;;;;;5087828;28;20289;-77
2024/01/12 01:13:47;;;;;;;;;;;3.20;99.90;;;;;;5087897;28;19932;-76
2024/01/12 01:16:12;;;;;;;;;;;3.40;99.90;;;;;;5084396;28;19996;-76
2024/01/12 01:18:38;;;;;;;;;;;3.30;99.90;;;;;;5069126;28;20975;-76
2024/01/12 01:21:04;;;;;;;;;;;3.30;99.90;;;;;;5086536;28;20363;-76
2024/01/12 01:23:29;;;;;;;;;;;3.40;99.90;;;;;;5087114;28;20380;-76
2024/01/12 01:25:55;;;;;;;;;;;3.30;99.90;;;;;;5085619;28;20374;-76
2024/01/12 01:28:21;;;;;;;;;;;3.30;99.90;;;;;;5062558;28;19928;-76
2024/01/12 01:30:47;;;;;;;;;;;3.30;99.90;;;;;;5107743;28;19934;-76
2024/01/12 01:33:13;;;;;;;;;;;3.30;99.90;;;;;;5089793;28;19998;-76
2024/01/12 01:35:39;;;;;;;;;;;3.40;99.90;;;;;;5067147;28;19928;-77
2024/01/12 01:38:05;;;;;;;;;;;3.30;99.90;;;;;;5086777;28;19950;-76
2024/01/12 01:40:30;;;;;;;;;;;3.30;99.90;;;;;;5087059;28;20392;-74
2024/01/12 01:42:56;;;;;;;;;;;3.30;99.90;;;;;;5084281;28;20431;-76
2024/01/12 01:45:22;;;;;;;;;;;3.30;99.90;;;;;;5051268;28;19958;-76
2024/01/12 01:47:47;;;;;;;;;;;3.30;99.90;;;;;;5103935;28;20404;-76
2024/01/12 01:50:16;;;;;;;;;;;3.60;99.90;;;;;;5088133;28;20014;-76
2024/01/12 01:52:51;;;;;;;;;;;3.30;99.90;;;;;;5087266;28;19928;-75
2024/01/12 01:55:17;;;;;;;;;;;3.30;99.90;;;;;;5089109;28;19932;-76
2024/01/12 01:57:44;;;;;;;;;;;4.60;99.90;;;;;;5087349;28;19985;-76
2024/01/12 02:00:10;;;;;;;;;;;3.30;99.90;;;;;;5054368;28;19976;-75
2024/01/12 02:02:36;;;;;;;;;;;3.30;99.90;;;;;;5071153;28;20058;-77
2024/01/12 02:05:04;;;;;;;;;;;3.30;99.90;;;;;;5090281;28;20024;-76
2024/01/12 02:07:39;;;;;;;;;;;3.20;99.90;;;;;;5088731;28;19931;-76
2024/01/12 02:10:06;;;;;;;;;;;3.30;99.90;;;;;;5090729;28;19924;-76
2024/01/12 02:12:33;;;;;;;;;;;3.20;99.90;;;;;;5089849;28;19936;-75
2024/01/12 02:14:59;;;;;;;;;;;3.80;99.90;;;;;;5090353;28;19931;-76
2024/01/12 02:17:25;;;;;;;;;;;3.20;99.90;;;;;;5089509;28;19927;-76
2024/01/12 02:19:56;;;;;;;;;;;3.20;99.90;;;;;;5089980;28;19934;-76
2024/01/12 02:22:22;;;;;;;;;;;3.20;99.90;;;;;;5090601;28;19928;-76
2024/01/12 02:24:48;;;;;;;;;;;3.20;99.90;;;;;;5091520;28;19927;-76
2024/01/12 02:27:14;;;;;;;;;;;3.40;99.90;;;;;;5055202;28;19920;-76
2024/01/12 02:29:39;;;;;;;;;;;3.20;99.90;;;;;;5087309;28;19935;-76
2024/01/12 02:32:05;;;;;;;;;;;3.20;99.90;;;;;;5073196;28;20022;-76
2024/01/12 02:34:31;;;;;;;;;;;3.20;99.90;;;;;;5055392;28;19991;-76
2024/01/12 02:36:56;;;;;;;;;;;3.20;99.90;;;;;;5090147;28;20010;-76
2024/01/12 02:39:22;;;;;;;;;;;3.30;99.90;;;;;;5069946;28;19924;-76
2024/01/12 02:41:47;;;;;;;;;;;3.10;99.90;;;;;;5087450;28;20012;-77
2024/01/12 02:44:13;;;;;;;;;;;3.20;99.90;;;;;;5089590;28;20026;-75
2024/01/12 02:46:39;;;;;;;;;;;3.20;99.90;;;;;;5071343;28;19936;-77
2024/01/12 02:49:04;;;;;;;;;;;3.10;99.90;;;;;;5068619;28;19934;-76
2024/01/12 02:51:30;;;;;;;;;;;3.30;99.90;;;;;;5089841;28;19923;-77
2024/01/12 02:53:57;;;;;;;;;;;4.40;99.90;;;;;;5071204;28;19927;-76
2024/01/12 02:56:22;;;;;;;;;;;3.10;99.90;;;;;;5087611;28;19923;-76
2024/01/12 02:58:48;;;;;;;;;;;3.10;99.90;;;;;;5073196;28;19946;-77
2024/01/12 03:01:20;;;;;;;;;;;3.10;99.90;;;;;;5106300;28;20374;-76
2024/01/12 03:03:45;;;;;;;;;;;3.00;99.90;;;;;;5071527;28;19928;-76
2024/01/12 03:06:11;;;;;;;;;;;3.10;99.90;;;;;;5087721;28;19930;-76
2024/01/12 03:08:36;;;;;;;;;;;3.00;99.90;;;;;;5072354;28;20667;-76
2024/01/12 03:11:02;;;;;;;;;;;3.00;99.90;;;;;;5069853;28;20439;-77
2024/01/12 03:13:28;;;;;;;;;;;3.00;99.90;;;;;;5088795;28;19938;-76
2024/01/12 03:15:53;;;;;;;;;;;2.90;99.90;;;;;;5086468;28;20010;-76
2024/01/12 03:18:19;;;;;;;;;;;2.90;99.90;;;;;;5072752;28;19939;-76
2024/01/12 03:20:45;;;;;;;;;;;3.00;99.90;;;;;;5086463;28;20298;-76
2024/01/12 03:23:10;;;;;;;;;;;3.00;99.90;;;;;;5053105;28;20378;-76
2024/01/12 03:25:36;;;;;;;;;;;3.00;99.90;;;;;;5088081;28;19969;-76
2024/01/12 03:28:02;;;;;;;;;;;3.70;99.90;;;;;;5088234;28;19924;-76
2024/01/12 03:30:27;;;;;;;;;;;3.00;99.90;;;;;;5072528;28;19928;-76
2024/01/12 03:32:55;;;;;;;;;;;3.00;99.90;;;;;;5087070;28;20214;-77
2024/01/12 03:35:20;;;;;;;;;;;3.00;99.90;;;;;;5087535;28;20577;-76
2024/01/12 03:37:46;;;;;;;;;;;3.50;99.90;;;;;;5070273;28;19938;-76
2024/01/12 03:40:12;;;;;;;;;;;3.10;99.90;;;;;;5086314;28;20409;-76
2024/01/12 03:42:37;;;;;;;;;;;3.80;99.90;;;;;;5085808;28;19931;-77
2024/01/12 03:45:03;;;;;;;;;;;3.40;99.90;;;;;;5084264;28;19924;-76
2024/01/12 03:47:35;;;;;;;;;;;3.00;99.90;;;;;;5071623;28;19928;-76
2024/01/12 03:50:00;;;;;;;;;;;3.10;99.90;;;;;;5084345;28;19934;-76
2024/01/12 03:52:26;;;;;;;;;;;3.10;99.90;;;;;;5086878;28;19930;-76
2024/01/12 03:54:51;;;;;;;;;;;3.00;99.90;;;;;;5086263;28;19934;-77
2024/01/12 03:57:17;;;;;;;;;;;3.00;99.90;;;;;;5070731;28;20401;-76
2024/01/12 03:59:43;;;;;;;;;;;4.30;99.90;;;;;;5086295;28;19932;-76
2024/01/12 04:02:08;;;;;;;;;;;3.30;99.90;;;;;;5086665;28;20191;-76
2024/01/12 04:04:37;;;;;;;;;;;3.00;99.90;;;;;;5084828;28;19954;-76
2024/01/12 04:07:03;;;;;;;;;;;3.00;99.90;;;;;;5085921;28;19934;-76
2024/01/12 04:09:28;;;;;;;;;;;2.90;99.90;;;;;;5103965;28;20190;-76
2024/01/12 04:11:54;;;;;;;;;;;2.90;99.90;;;;;;5068867;28;19932;-76
2024/01/12 04:14:19;;;;;;;;;;;3.00;99.90;;;;;;5085111;28;19932;-77
2024/01/12 04:16:45;;;;;;;;;;;3.00;99.90;;;;;;5086642;28;19932;-77
2024/01/12 04:19:11;;;;;;;;;;;3.00;99.90;;;;;;5101699;28;19946;-76
2024/01/12 04:21:36;;;;;;;;;;;2.90;99.90;;;;;;5086936;28;19981;-76
2024/01/12 04:24:02;;;;;;;;;;;3.00;99.90;;;;;;5086146;28;20018;-76
2024/01/12 04:26:27;;;;;;;;;;;2.90;99.90;;;;;;5083894;28;19931;-77
2024/01/12 04:28:53;;;;;;;;;;;2.90;99.90;;;;;;5057447;28;19930;-76
2024/01/12 04:31:19;;;;;;;;;;;2.90;99.90;;;;;;5054284;28;19991;-76
2024/01/12 04:33:44;;;;;;;;;;;4.20;99.90;;;;;;5087279;28;20055;-76
2024/01/12 04:36:10;;;;;;;;;;;2.80;99.90;;;;;;5084645;28;19931;-76
2024/01/12 04:38:35;;;;;;;;;;;2.90;99.90;;;;;;5085605;28;20512;-77
2024/01/12 04:41:01;;;;;;;;;;;2.90;99.90;;;;;;5069530;28;19958;-76
2024/01/12 04:43:27;;;;;;;;;;;3.00;99.90;;;;;;5086502;28;20437;-77
2024/01/12 04:45:52;;;;;;;;;;;2.90;99.90;;;;;;5085740;28;19938;-75
2024/01/12 04:48:18;;;;;;;;;;;2.90;99.90;;;;;;5081123;28;19973;-77
2024/01/12 04:50:43;;;;;;;;;;;3.00;99.90;;;;;;5087297;28;19967;-76
2024/01/12 04:53:09;;;;;;;;;;;2.90;99.90;;;;;;5085113;28;20366;-75
2024/01/12 04:55:34;;;;;;;;;;;2.90;99.90;;;;;;5070614;28;19931;-76
2024/01/12 04:58:06;;;;;;;;;;;1.50;99.90;;;;;;5102022;28;20011;-76
2024/01/12 05:00:32;;;;;;;;;;;3.10;99.90;;;;;;5070480;28;20018;-77
2024/01/12 05:02:57;;;;;;;;;;;2.90;99.90;;;;;;5067404;28;19928;-76
2024/01/12 05:05:23;;;;;;;;;;;3.00;99.90;;;;;;5086053;28;21977;-76
2024/01/12 05:07:48;;;;;;;;;;;3.00;99.90;;;;;;5067641;28;19924;-76
2024/01/12 05:10:14;;;;;;;;;;;3.70;99.90;;;;;;5052742;28;19930;-76
2024/01/12 05:12:40;;;;;;;;;;;2.90;99.90;;;;;;5086058;28;19931;-77
2024/01/12 05:15:06;;;;;;;;;;;3.00;99.90;;;;;;5085332;28;20133;-77
2024/01/12 05:17:32;;;;;;;;;;;3.00;99.90;;;;;;5067518;28;19939;-76
2024/01/12 05:19:59;;;;;;;;;;;3.10;99.90;;;;;;5082854;28;19923;-77
2024/01/12 05:22:25;;;;;;;;;;;3.10;99.90;;;;;;5084960;28;19935;-77
2024/01/12 05:24:52;;;;;;;;;;;3.10;99.90;;;;;;5069019;28;20007;-77
2024/01/12 05:27:17;;;;;;;;;;;3.10;99.90;;;;;;5101564;28;20408;-76
2024/01/12 05:29:44;;;;;;;;;;;3.20;99.90;;;;;;5071994;28;20405;-76
2024/01/12 05:32:09;;;;;;;;;;;3.20;99.90;;;;;;5086909;28;20387;-76
2024/01/12 05:34:35;;;;;;;;;;;3.20;99.90;;;;;;5089833;28;19935;-75
2024/01/12 05:37:01;;;;;;;;;;;3.20;99.90;;;;;;5090597;27;19928;-77
2024/01/12 05:39:27;;;;;;;;;;;3.20;99.90;;;;;;5069955;28;20498;-77
2024/01/12 05:41:53;;;;;;;;;;;3.20;99.90;;;;;;5070018;28;19927;-77
2024/01/12 05:44:21;;;;;;;;;;;3.30;99.90;;;;;;5088300;28;19978;-78
2024/01/12 05:46:50;;;;;;;;;;;3.30;99.90;;;;;;5107699;28;19971;-76
2024/01/12 05:49:16;;;;;;;;;;;3.30;99.90;;;;;;5089779;28;20401;-77
2024/01/12 05:51:41;;;;;;;;;;;3.50;99.90;;;;;;5072599;28;19924;-77
2024/01/12 05:54:07;;;;;;;;;;;3.70;99.90;;;;;;5072190;28;19938;-77
2024/01/12 05:56:33;;;;;;;;;;;3.30;99.90;;;;;;5091511;28;20354;-77
2024/01/12 05:58:58;;;;;;;;;;;3.20;99.90;;;;;;5090729;28;19943;-77
2024/01/12 06:01:24;;;;;;;;;;;4.20;99.90;;;;;;5070899;28;19932;-77
2024/01/12 06:03:49;;;;;;;;;;;3.30;99.90;;;;;;5108985;28;19934;-77
2024/01/12 06:06:15;;;;;;;;;;;3.40;99.90;;;;;;5089196;28;19931;-76
2024/01/12 06:08:41;;;;;;;;;;;3.40;99.90;;;;;;5089961;28;19992;-77
2024/01/12 06:11:06;;;;;;;;;;;3.40;99.90;;;;;;5090624;28;19967;-76
2024/01/12 06:13:32;;;;;;;;;;;3.40;99.90;;;;;;5105948;28;20014;-76
2024/01/12 06:15:57;;;;;;;;;;;3.40;99.90;;;;;;5089484;28;19927;-76
2024/01/12 06:18:27;;;;;;;;;;;3.50;99.90;;;;;;5108408;28;19924;-77
2024/01/12 06:20:53;;;;;;;;;;;3.50;99.90;;;;;;5088397;28;19935;-77
2024/01/12 06:23:19;;;;;;;;;;;3.40;99.90;;;;;;5089629;28;19939;-77
2024/01/12 06:25:44;;;;;;;;;;;3.50;99.90;;;;;;5089142;28;19928;-77
2024/01/12 06:28:16;;;;;;;;;;;4.10;99.90;;;;;;5090818;28;19927;-76
2024/01/12 06:30:41;;;;;;;;;;;3.70;99.90;;;;;;5073420;28;19934;-77
2024/01/12 06:33:07;;;;;;;;;;;3.60;99.90;;;;;;5088016;28;20034;-77
2024/01/12 06:35:35;;;;;;;;;;;3.60;99.90;;;;;;5070562;28;20007;-77
2024/01/12 06:38:00;;;;;;;;;;;3.60;99.90;;;;;;5109569;28;20517;-76
2024/01/12 06:40:26;;;;;;;;;;;3.70;99.90;;;;;;5089646;28;20014;-77
2024/01/12 06:42:53;;;;;;;;;;;5.00;99.90;;;;;;5071230;28;19934;-77
2024/01/12 06:45:19;;;;;;;;;;;3.60;99.90;;;;;;5089097;27;19931;-77
2024/01/12 06:47:45;;;;;;;;;;;3.70;99.90;;;;;;5074713;28;19924;-82
2024/01/12 06:50:13;;;;;;;;;;;3.70;99.90;;;;;;5088298;28;20477;-77
2024/01/12 06:52:38;;;;;;;;;;;3.70;99.90;;;;;;5085729;28;19928;-77
2024/01/12 06:55:05;;;;;;;;;;;3.80;99.90;;;;;;5087046;27;20008;-78
2024/01/12 06:57:31;;;;;;;;;;;3.80;99.90;;;;;;5085590;28;19970;-76
2024/01/12 06:59:57;;;;;;;;;;;3.80;99.90;;;;;;5087537;28;19932;-78
2024/01/12 07:02:23;;;;;;;;;;;3.80;99.90;;;;;;5101925;28;19925;-81
2024/01/12 07:04:48;;;;;;;;;;;4.80;99.90;;;;;;5065136;28;20287;-79
2024/01/12 07:07:15;;;;;;;;;;;3.80;99.90;;;;;;5099591;28;20944;-81
2024/01/12 07:09:47;;;;;;;;;;;3.80;99.90;;;;;;5070253;28;19947;-80
2024/01/12 07:12:12;;;;;;;;;;;3.90;99.90;;;;;;5071591;28;19932;-82
2024/01/12 07:14:39;;;;;;;;;;;3.80;99.90;;;;;;5083139;28;19923;-80
2024/01/12 07:17:05;;;;;;;;;;;3.80;99.90;;;;;;5084608;28;20000;-81
2024/01/12 07:19:34;;;;;;;;;;;3.80;99.90;;;;;;5102853;27;19928;-81
2024/01/12 07:21:59;;;;;;;;;;;3.80;99.90;;;;;;5084817;28;19942;-81
2024/01/12 07:24:31;;;;;;;;;;;3.80;99.90;;;;;;5100756;28;19955;-79
2024/01/12 07:27:02;;;;;;;;;;;3.90;99.90;;;;;;5099103;27;20064;-81
2024/01/12 07:29:28;;;;;;;;;;;3.80;99.90;;;;;;5081358;28;20528;-79
2024/01/12 07:31:54;;;;;;;;;;;3.90;99.90;;;;;;5084970;28;19943;-81
2024/01/12 07:34:21;;;;;;;;;;;3.90;99.90;;;;;;5081641;28;19932;-80
2024/01/12 07:36:46;;;;;;;;;;;3.80;99.90;;;;;;5096833;28;19927;-80
2024/01/12 07:39:12;;;;;;;;;;;3.80;99.90;;;;;;5083220;28;20319;-81
2024/01/12 07:41:38;;;;;;;;;;;4.80;99.90;;;;;;5081846;28;19927;-80
2024/01/12 07:44:04;;;;;;;;;;;3.90;99.90;;;;;;5083974;28;19931;-81
2024/01/12 07:46:29;;;;;;;;;;;4.00;99.90;;;;;;5098758;28;19919;-77
2024/01/12 07:48:56;;;;;;;;;;;3.90;99.90;;;;;;5100933;27;20054;-76
2024/01/12 07:51:22;;;;;;;;;;;4.30;99.90;;;;;;5084535;28;20026;-77
2024/01/12 07:53:49;;;;;;;;;;;4.00;99.90;;;;;;5081702;28;19923;-76
2024/01/12 07:56:14;;;;;;;;;;;4.10;99.90;;;;;;5083194;28;19976;-77
2024/01/12 07:58:40;;;;;;;;;;;3.90;99.90;;;;;;5102784;28;19943;-76
2024/01/12 08:01:11;;;;;;;;;;;3.90;99.90;;;;;;5065452;28;20354;-76
2024/01/12 08:03:36;;;;;;;;;;;3.90;99.90;;;;;;5082201;28;19927;-77
2024/01/12 08:06:02;;;;;;;;;;;3.90;99.90;;;;;;5083648;28;20283;-76
2024/01/12 08:08:28;;;;;;;;;;;4.00;99.90;;;;;;5084810;28;19924;-76
2024/01/12 08:10:53;;;;;;;;;;;4.10;99.90;;;;;;5063740;28;20006;-78
2024/01/12 08:13:19;;;;;;;;;;;5.10;99.90;;;;;;5084651;28;19932;-77
2024/01/12 08:15:44;;;;;;;;;;;4.10;99.90;;;;;;5082825;28;19928;-77
2024/01/12 08:18:10;;;;;;;;;;;4.20;99.90;;;;;;5084916;28;19967;-76
2024/01/12 08:20:36;;;;;;;;;;;4.10;99.90;;;;;;5068405;28;20017;-77
2024/01/12 08:23:01;;;;;;;;;;;4.10;99.90;;;;;;5079456;28;19935;-76
2024/01/12 08:25:27;;;;;;;;;;;4.10;99.90;;;;;;5083079;28;19928;-77
2024/01/12 08:27:53;;;;;;;;;;;4.20;99.90;;;;;;5067386;28;20332;-77
2024/01/12 08:30:24;;;;;;;;;;;4.10;99.90;;;;;;5100569;27;19935;-77
2024/01/12 08:32:50;;;;;;;;;;;4.50;99.90;;;;;;5101120;28;19928;-76
2024/01/12 08:35:24;;;;;;;;;;;4.20;99.90;;;;;;5100822;28;20374;-76
2024/01/12 08:37:49;;;;;;;;;;;4.20;99.90;;;;;;5050231;28;19928;-77
2024/01/12 08:40:15;;;;;;;;;;;4.20;99.90;;;;;;5066954;28;19934;-78
2024/01/12 08:42:41;;;;;;;;;;;4.20;99.90;;;;;;5100252;28;19924;-80
2024/01/12 08:45:07;;;;;;;;;;;4.20;99.90;;;;;;5062749;28;20438;-78
2024/01/12 08:47:32;;;;;;;;;;;4.20;99.90;;;;;;5081988;28;19932;-77
2024/01/12 08:49:58;;;;;;;;;;;4.30;99.90;;;;;;5065479;28;20447;-77
2024/01/12 08:52:24;;;;;;;;;;;4.30;99.90;;;;;;5082943;28;20015;-78
2024/01/12 08:54:49;;;;;;;;;;;4.30;99.90;;;;;;5085862;28;19999;-77
2024/01/12 08:57:15;;;;;;;;;;;4.50;99.90;;;;;;5074465;28;19931;-78
2024/01/12 08:59:41;;;;;;;;;;;4.20;99.90;;;;;;5082814;28;20388;-77
2024/01/12 09:02:09;;;;;;;;;;;4.30;99.90;;;;;;5103699;28;19923;-78
2024/01/12 09:04:35;;;;;;;;;;;4.30;99.90;;;;;;5102637;28;19985;-78
2024/01/12 09:07:03;;;;;;;;;;;4.30;99.90;;;;;;5085158;28;20469;-80
2024/01/12 09:09:30;;;;;;;;;;;4.20;99.90;;;;;;5084666;28;20022;-81
2024/01/12 09:11:57;;;;;;;;;;;4.40;99.90;;;;;;5085695;28;19927;-82
2024/01/12 09:14:27;;;;;;;;;;;4.30;99.90;;;;;;5084424;28;19928;-79
2024/01/12 09:16:53;;;;;;;;;;;4.30;99.90;;;;;;5089013;28;20023;-80
2024/01/12 09:19:18;;;;;;;;;;;4.30;99.90;;;;;;5070005;28;20334;-79
2024/01/12 09:21:44;;;;;;;;;;;5.40;99.90;;;;;;5065589;28;19932;-81
2024/01/12 09:24:11;;;;;;;;;;;4.40;99.90;;;;;;5083308;28;20266;-80
2024/01/12 09:26:37;;;;;;;;;;;4.40;99.90;;;;;;5082863;28;19939;-82
2024/01/12 09:29:04;;;;;;;;;;;4.40;99.90;;;;;;5083439;28;19928;-82
2024/01/12 09:31:33;;;;;;;;;;;4.40;99.90;;;;;;5100156;28;19928;-81
2024/01/12 09:33:59;;;;;;;;;;;4.30;99.90;;;;;;5042688;28;20062;-80
2024/01/12 09:36:25;;;;;;;;;;;4.30;99.90;;;;;;5083567;28;19931;-81
2024/01/12 09:38:50;;;;;;;;;;;4.40;99.90;;;;;;5069025;28;19932;-83
2024/01/12 09:41:20;;;;;;;;;;;4.50;99.90;;;;;;5086204;28;20010;-82
2024/01/12 09:43:47;;;;;;;;;;;4.40;99.90;;;;;;5083226;28;19928;-79
2024/01/12 09:46:17;;;;;;;;;;;4.40;99.90;;;;;;5086189;28;19932;-80
2024/01/12 09:48:42;;;;;;;;;;;4.40;99.90;;;;;;5086086;28;20063;-79
2024/01/12 09:51:11;;;;;;;;;;;4.50;99.90;;;;;;5100078;28;20308;-81
2024/01/12 09:53:37;;;;;;;;;;;4.50;99.90;;;;;;5063181;28;20019;-81
2024/01/12 09:56:06;;;;;;;;;;;4.20;99.90;;;;;;5101153;28;19924;-83
2024/01/12 09:58:32;;;;;;;;;;;5.10;99.90;;;;;;5084770;28;20396;-81
2024/01/12 10:00:57;;;;;;;;;;;4.80;99.90;;;;;;5085065;28;20027;-80
2024/01/12 10:03:24;;;;;;;;;;;4.50;99.90;;;;;;5082961;28;20027;-80
2024/01/12 10:05:50;;;;;;;;;;;4.60;99.90;;;;;;5084935;28;19940;-83
2024/01/12 10:08:15;;;;;;;;;;;4.70;99.90;;;;;;5067868;28;19927;-79
2024/01/12 10:10:42;;;;;;;;;;;4.60;99.90;;;;;;5084006;28;20019;-80
2024/01/12 10:13:10;;;;;;;;;;;4.60;99.90;;;;;;5101043;28;20654;-79
2024/01/12 10:15:42;;;;;;;;;;;4.70;99.90;;;;;;5085660;28;19931;-77
2024/01/12 10:18:07;;;;;;;;;;;4.70;99.90;;;;;;5085112;28;19928;-79
2024/01/12 10:20:37;;;;;;;;;;;4.70;99.90;;;;;;5069621;28;19930;-81
2024/01/12 10:23:03;;;;;;;;;;;4.80;99.90;;;;;;5103638;28;19928;-81
2024/01/12 10:25:29;;;;;;;;;;;4.80;99.90;;;;;;5066959;28;19961;-81
2024/01/12 10:27:56;;;;;;;;;;;4.80;99.90;;;;;;5087754;28;19927;-80
2024/01/12 10:30:21;;;;;;;;;;;4.80;99.90;;;;;;5071069;28;19928;-81
2024/01/12 10:32:53;;;;;;;;;;;4.90;99.90;;;;;;5072532;28;19934;-81
2024/01/12 10:35:22;;;;;;;;;;;4.80;99.90;;;;;;5082801;28;19927;-81
2024/01/12 10:37:48;;;;;;;;;;;4.80;99.90;;;;;;5084647;28;19927;-76
2024/01/12 10:40:16;;;;;;;;;;;4.80;99.90;;;;;;5103436;27;19935;-77
2024/01/12 10:42:46;;;;;;;;;;;4.80;99.90;;;;;;5087366;28;19988;-81
2024/01/12 10:45:12;;;;;;;;;;;4.90;99.90;;;;;;5069989;28;20199;-76
2024/01/12 10:47:40;;;;;;;;;;;5.30;99.90;;;;;;5083903;28;20312;-76
2024/01/12 10:50:06;;;;;;;;;;;4.80;99.90;;;;;;5088618;28;20381;-75
2024/01/12 10:52:46;;;;;;;;;;;4.80;99.90;;;;;;5105049;28;19931;-76
2024/01/12 10:55:15;;;;;;;;;;;4.80;99.90;;;;;;5104793;28;19980;-75
2024/01/12 10:57:41;;;;;;;;;;;4.80;99.90;;;;;;5083501;28;19978;-76
2024/01/12 11:00:08;;;;;;;;;;;4.80;99.90;;;;;;5105465;27;20081;-76
2024/01/12 11:02:34;;;;;;;;;;;4.80;99.90;;;;;;5073268;28;19924;-76
2024/01/12 11:05:00;;;;;;;;;;;4.80;99.90;;;;;;5085609;28;19971;-77
2024/01/12 11:07:27;;;;;;;;;;;4.80;99.90;;;;;;5070308;28;20054;-76
2024/01/12 11:09:53;;;;;;;;;;;4.90;99.90;;;;;;5086193;28;20010;-76
2024/01/12 11:12:28;;;;;;;;;;;4.90;99.90;;;;;;5083067;28;19928;-76
2024/01/12 11:14:54;;;;;;;;;;;4.90;99.90;;;;;;5084282;28;20002;-79
2024/01/12 11:17:20;;;;;;;;;;;4.90;99.90;;;;;;5088458;28;20014;-82
2024/01/12 11:19:45;;;;;;;;;;;5.50;99.90;;;;;;5087156;28;19935;-82
2024/01/12 11:22:11;;;;;;;;;;;4.90;99.90;;;;;;5083326;28;19944;-78
2024/01/12 11:24:38;;;;;;;;;;;5.00;99.90;;;;;;5087126;28;19938;-83
2024/01/12 11:27:04;;;;;;;;;;;5.10;99.90;;;;;;5068814;27;19934;-80
2024/01/12 11:29:36;;;;;;;;;;;5.00;99.90;;;;;;5099698;27;20397;-80
2024/01/12 11:32:03;;;;;;;;;;;5.20;99.90;;;;;;5099968;27;19969;-80
2024/01/12 11:34:36;;;;;;;;;;;5.30;99.90;;;;;;5097856;28;19932;-78
2024/01/12 11:37:02;;;;;;;;;;;5.40;99.90;;;;;;5086529;27;20190;-80
2024/01/12 11:39:31;;;;;;;;;;;5.30;99.90;;;;;;5106339;28;19924;-81
2024/01/12 11:42:00;;;;;;;;;;;5.40;99.90;;;;;;5102932;28;20270;-81
2024/01/12 11:44:25;;;;;;;;;;;5.40;99.90;;;;;;5079272;28;20087;-76
2024/01/12 11:46:51;;;;;;;;;;;5.40;99.90;;;;;;5083699;28;20403;-77
2024/01/12 11:49:19;;;;;;;;;;;5.40;99.90;;;;;;5084468;28;19928;-76
2024/01/12 11:51:45;;;;;;;;;;;5.40;99.90;;;;;;5083925;28;19927;-77
2024/01/12 11:54:10;;;;;;;;;;;5.50;99.90;;;;;;5081994;28;20024;-79
2024/01/12 11:56:36;;;;;;;;;;;5.60;99.90;;;;;;5084640;28;20210;-77
2024/01/12 11:59:03;;;;;;;;;;;6.30;99.90;;;;;;5083920;27;20055;-78
2024/01/12 12:01:32;;;;;;;;;;;5.50;99.90;;;;;;5102818;28;19932;-76
2024/01/12 12:03:57;;;;;;;;;;;5.60;99.90;;;;;;5068529;28;19927;-76
2024/01/12 12:06:23;;;;;;;;;;;5.60;99.90;;;;;;5085436;28;20017;-76
2024/01/12 12:08:52;;;;;;;;;;;5.50;99.90;;;;;;5082059;28;20310;-76
2024/01/12 12:11:19;;;;;;;;;;;5.80;99.90;;;;;;5097865;27;19927;-75
2024/01/12 12:13:45;;;;;;;;;;;5.70;99.90;;;;;;5083127;28;20328;-74
2024/01/12 12:16:11;;;;;;;;;;;5.60;99.90;;;;;;5086342;28;19924;-75
2024/01/12 12:18:36;;;;;;;;;;;5.60;99.90;;;;;;5105911;28;20279;-75
2024/01/12 12:21:02;;;;;;;;;;;5.70;99.90;;;;;;5068314;28;19928;-74
2024/01/12 12:23:29;;;;;;;;;;;5.60;99.90;;;;;;5086857;28;20363;-74
2024/01/12 12:25:55;;;;;;;;;;;5.60;99.90;;;;;;5087346;28;19978;-75
2024/01/12 12:28:21;;;;;;;;;;;5.50;99.90;;;;;;5070348;28;19963;-74
2024/01/12 12:30:46;;;;;;;;;;;5.50;99.90;;;;;;5084927;28;19920;-75
2024/01/12 12:33:12;;;;;;;;;;;5.50;99.90;;;;;;5088174;28;20501;-75
2024/01/12 12:35:38;;;;;;;;;;;5.60;99.90;;;;;;5070247;28;19928;-75
2024/01/12 12:38:03;;;;;;;;;;;5.60;99.90;;;;;;5088865;28;19927;-75
2024/01/12 12:40:30;;;;;;;;;;;5.70;99.90;;;;;;5105473;28;19938;-75
2024/01/12 12:42:57;;;;;;;;;;;5.70;99.90;;;;;;5103328;28;19971;-75
2024/01/12 12:45:23;;;;;;;;;;;5.80;99.90;;;;;;5054085;28;20471;-75
2024/01/12 12:47:49;;;;;;;;;;;5.90;99.90;;;;;;5086971;28;20474;-74
2024/01/12 12:50:15;;;;;;;;;;;6.00;99.90;;;;;;5069723;28;19923;-75
2024/01/12 12:52:41;;;;;;;;;;;6.00;99.90;;;;;;5104759;28;20398;-75
2024/01/12 12:55:07;;;;;;;;;;;6.10;99.90;;;;;;5087725;28;19928;-75
2024/01/12 12:57:33;;;;;;;;;;;6.00;99.90;;;;;;5104312;28;19924;-75
2024/01/12 12:59:58;;;;;;;;;;;6.10;99.90;;;;;;5088301;28;20207;-75
2024/01/12 13:02:24;;;;;;;;;;;6.10;99.90;;;;;;5078861;28;19932;-75
2024/01/12 13:04:54;;;;;;;;;;;6.00;99.90;;;;;;5067209;28;19932;-75
2024/01/12 13:07:20;;;;;;;;;;;6.00;99.90;;;;;;5088465;28;19934;-75
2024/01/12 13:09:46;;;;;;;;;;;6.00;99.90;;;;;;5087397;28;19931;-75
2024/01/12 13:12:12;;;;;;;;;;;5.90;99.90;;;;;;5088247;28;19928;-75
2024/01/12 13:14:39;;;;;;;;;;;5.80;99.90;;;;;;5104918;28;20438;-75
2024/01/12 13:17:05;;;;;;;;;;;5.80;99.90;;;;;;5105512;28;19978;-74
2024/01/12 13:19:30;;;;;;;;;;;5.70;99.90;;;;;;5068269;28;20349;-75
2024/01/12 13:21:56;;;;;;;;;;;5.70;99.90;;;;;;5088601;28;19927;-74
2024/01/12 13:24:23;;;;;;;;;;;5.80;99.90;;;;;;5085344;28;19934;-74
2024/01/12 13:26:49;;;;;;;;;;;5.80;99.90;;;;;;5086030;28;19939;-75
2024/01/12 13:29:15;;;;;;;;;;;5.70;99.90;;;;;;5105914;28;19927;-74
2024/01/12 13:31:43;;;;;;;;;;;5.80;99.90;;;;;;5087267;28;20439;-75
2024/01/12 13:34:09;;;;;;;;;;;5.70;99.90;;;;;;5084026;28;19938;-74
2024/01/12 13:36:35;;;;;;;;;;;5.70;99.90;;;;;;5068402;28;19928;-75
2024/01/12 13:39:07;;;;;;;;;;;5.80;99.90;;;;;;5087146;28;19974;-75
2024/01/12 13:41:37;;;;;;;;;;;6.10;99.90;;;;;;5069627;28;19928;-75
2024/01/12 13:44:03;;;;;;;;;;;5.70;99.90;;;;;;5086648;28;20371;-74
2024/01/12 13:46:29;;;;;;;;;;;5.60;99.90;;;;;;5068578;28;19928;-75
2024/01/12 13:48:55;;;;;;;;;;;5.50;99.90;;;;;;5105442;28;20270;-75
2024/01/12 13:51:20;;;;;;;;;;;5.30;99.90;;;;;;5074684;28;19934;-75
2024/01/12 13:53:47;;;;;;;;;;;5.50;99.90;;;;;;5091176;28;19928;-75
2024/01/12 13:56:13;;;;;;;;;;;5.30;99.90;;;;;;5088424;28;20281;-75
2024/01/12 13:58:38;;;;;;;;;;;5.40;99.90;;;;;;5074502;28;19924;-75
2024/01/12 14:01:04;;;;;;;;;;;5.30;99.90;;;;;;5091664;28;19959;-75
2024/01/12 14:03:31;;;;;;;;;;;5.20;99.90;;;;;;5107647;28;19989;-76
2024/01/12 14:05:57;;;;;;;;;;;5.20;99.90;;;;;;5090187;28;19959;-74
2024/01/12 14:08:24;;;;;;;;;;;5.10;99.90;;;;;;5091672;28;20027;-75
2024/01/12 14:10:50;;;;;;;;;;;5.20;99.90;;;;;;5092152;28;19938;-75
2024/01/12 14:13:16;;;;;;;;;;;6.50;99.90;;;;;;5091191;28;19934;-75
2024/01/12 14:15:43;;;;;;;;;;;5.10;99.90;;;;;;5090121;28;19923;-75
2024/01/12 14:18:18;;;;;;;;;;;5.10;99.90;;;;;;5090485;28;19924;-75
2024/01/12 14:20:45;;;;;;;;;;;5.20;99.90;;;;;;5092670;28;19934;-75
2024/01/12 14:23:13;;;;;;;;;;;5.10;99.90;;;;;;5091401;28;19927;-75
2024/01/12 14:25:39;;;;;;;;;;;5.10;99.90;;;;;;5073857;28;20405;-75